Hlavní strana
METAR-TAF:

METAR-TAF

Letiště :

Hagåtña, Guam, Spojené státy americké

zeměpisná šířka: 13-29N, zeměpisná délka: 144-48E, výška: 91 m

Aktuální stav počasí

Zpráva byla vytvořena před 41 minutami, v 03:54 UTC
Východní vítr 11 kt
Teplota 31°C
Vlhkost vzduchu 75%
Tlak 1009 hPa
Viditelnost: 16.1 km
Skoro jasno ve výšce 2600 ft

METAR: PGUM 170354Z 08011KT 10SM FEW026 31/26 A2979 RMK AO2 RAB0255E24 SLP079 P0000 T03110261

Čas: 14:35 (04:35 UTC)

Předpověď počasí

Zpráva byla vytvořena před 4 hodinami a 57 minutami, v 23:38 UTC
Předpověď platná od 17 v 00 UTC do 18 v 06 UTC
Východní vítr 15 kt
Viditelnost: 10 km
Polojasno ve výšce 1800 ft
Polojasno ve výšce 2500 ft
přeháňky v blízkosti
Od 17 v 0800 UTC
Východoseverovýchodní vítr 8 kt
Viditelnost: 10 km
Skoro jasno ve výšce 1800 ft
Polojasno ve výšce 3000 ft
přeháňky v blízkosti

TAF: PGUM 162338Z 1700/1806 09015KT P6SM VCSH SCT018 SCT025 FM170800 07008KT P6SM VCSH FEW018 SCT030

Stav a předpovědi počasí z více než 4 000 letišť (zprávy METAR a TAF).

Červené a žluté tečky na mapě představují dostupné meteorologické stanice.

Když kurzor umístíte na tečku, zobrazí se název stanice.

Pak kliknutím zobrazíte stav a předpověď počasí.

Chcete-li změnit mapu, kliknutím na zelené tlačítko se znaménkem +mapu přiblížíte, kliknutím na zelené tlačítko se znaménkem – mapu oddálíte a kliknutím na zelené šipky přejdete na sousední mapy.


METAR-TAF: